BEL9KTR LEPA-EBBR
Flight info
| Callsign | BEL9KTR |
|---|---|
| Flight time | 1h 55m |
| Altitude | 38000 |
| Route | GALAT DCT RODRA N861 OLOXO DCT OKABI DCT TOU DCT ADABI DCT BOKNO UN858 VANAD UN874 BAMES UT191 PODEM UN873 BAZOS DCT BELDI DCT VEKIN/N0429F260 Z173 ARVOL |
| Aircraft | A319/M-SDE3FGHIRWY/LB1 |
Departure
| Time | 2026-05-07 18:03 |
|---|---|
| Airport | Palma de Mallorca Airport (LEPA) |
Arrival
| Time | 2026-05-07 19:58 |
|---|---|
| Airport | Brussels Airport (EBBR) |
| Time | Latitude | Longitude | Altitude | Speed | Heading |
|---|---|---|---|---|---|
| 2026-05-07 17:38 | 39.54474 | 2.73132 | 39 ft | 0 kts | 344° |
| 2026-05-07 17:38 | 39.54492 | 2.73182 | 39 ft | 0 kts | 344° |
| 2026-05-07 17:55 | 39.54491 | 2.73182 | 38 ft | 1 kts | 344° |
| 2026-05-07 17:55 | 39.54469 | 2.73192 | 37 ft | 4 kts | 332° |
| 2026-05-07 17:56 | 39.54450 | 2.73210 | 36 ft | 4 kts | 289° |
| 2026-05-07 17:56 | 39.54449 | 2.73228 | 38 ft | 0 kts | 239° |
| 2026-05-07 17:57 | 39.54448 | 2.73225 | 38 ft | 2 kts | 234° |
| 2026-05-07 17:58 | 39.54397 | 2.73220 | 37 ft | 9 kts | 172° |
| 2026-05-07 17:58 | 39.54339 | 2.73182 | 38 ft | 8 kts | 230° |
| 2026-05-07 17:58 | 39.54304 | 2.73120 | 38 ft | 9 kts | 240° |
| 2026-05-07 17:58 | 39.54269 | 2.73060 | 38 ft | 7 kts | 214° |
| 2026-05-07 17:59 | 39.54227 | 2.73068 | 38 ft | 6 kts | 141° |
| 2026-05-07 17:59 | 39.54214 | 2.73108 | 38 ft | 0 kts | 99° |
| 2026-05-07 17:59 | 39.54213 | 2.73115 | 38 ft | 1 kts | 94° |
| 2026-05-07 17:59 | 39.54213 | 2.73116 | 38 ft | 0 kts | 94° |
| 2026-05-07 18:00 | 39.54213 | 2.73120 | 38 ft | 0 kts | 94° |
| 2026-05-07 18:00 | 39.54213 | 2.73128 | 38 ft | 3 kts | 92° |
| 2026-05-07 18:00 | 39.54212 | 2.73194 | 38 ft | 10 kts | 91° |
| 2026-05-07 18:01 | 39.54211 | 2.73292 | 38 ft | 11 kts | 90° |
| 2026-05-07 18:01 | 39.54231 | 2.73392 | 38 ft | 12 kts | 58° |
| 2026-05-07 18:01 | 39.54270 | 2.73474 | 38 ft | 11 kts | 58° |
| 2026-05-07 18:01 | 39.54300 | 2.73536 | 38 ft | 0 kts | 58° |
| 2026-05-07 18:02 | 39.54303 | 2.73542 | 38 ft | 3 kts | 58° |
| 2026-05-07 18:02 | 39.54449 | 2.73849 | 38 ft | 81 kts | 58° |
| 2026-05-07 18:02 | 39.54860 | 2.74715 | 38 ft | 144 kts | 58° |
| 2026-05-07 18:03 | 39.55425 | 2.75904 | 569 ft | 154 kts | 59° |
| 2026-05-07 18:03 | 39.55965 | 2.77078 | 1313 ft | 153 kts | 59° |
| 2026-05-07 18:03 | 39.56503 | 2.78263 | 2049 ft | 152 kts | 60° |
| 2026-05-07 18:03 | 39.57040 | 2.79446 | 2762 ft | 151 kts | 61° |
| 2026-05-07 18:04 | 39.57575 | 2.80631 | 3398 ft | 156 kts | 63° |
| 2026-05-07 18:04 | 39.58159 | 2.81931 | 3786 ft | 178 kts | 62° |
| 2026-05-07 18:04 | 39.58824 | 2.83406 | 4130 ft | 201 kts | 62° |
| 2026-05-07 18:04 | 39.59572 | 2.85053 | 4666 ft | 217 kts | 62° |
| 2026-05-07 18:05 | 39.60349 | 2.86752 | 5559 ft | 220 kts | 61° |
| 2026-05-07 18:05 | 39.61136 | 2.88474 | 6446 ft | 223 kts | 61° |
| 2026-05-07 18:05 | 39.62086 | 2.90090 | 7296 ft | 231 kts | 40° |
| 2026-05-07 18:05 | 39.63566 | 2.90879 | 8101 ft | 241 kts | 6° |
| 2026-05-07 18:06 | 39.65220 | 2.90466 | 8933 ft | 249 kts | 332° |
| 2026-05-07 18:06 | 39.66443 | 2.88883 | 9771 ft | 254 kts | 297° |
| 2026-05-07 18:06 | 39.67102 | 2.86751 | 10662 ft | 255 kts | 288° |
| 2026-05-07 18:06 | 39.67658 | 2.84544 | 11434 ft | 265 kts | 290° |
| 2026-05-07 18:07 | 39.68650 | 2.82407 | 11773 ft | 290 kts | 304° |
| 2026-05-07 18:07 | 39.69863 | 2.80182 | 12106 ft | 314 kts | 304° |
| 2026-05-07 18:07 | 39.71169 | 2.77781 | 12388 ft | 338 kts | 304° |
| 2026-05-07 18:07 | 39.72564 | 2.75203 | 12727 ft | 357 kts | 304° |
| 2026-05-07 18:08 | 39.74008 | 2.72521 | 13384 ft | 365 kts | 304° |
| 2026-05-07 18:08 | 39.75475 | 2.69787 | 14096 ft | 370 kts | 304° |
| 2026-05-07 18:08 | 39.76934 | 2.67056 | 14769 ft | 375 kts | 304° |
| 2026-05-07 18:08 | 39.78433 | 2.64243 | 15464 ft | 379 kts | 303° |
| 2026-05-07 18:09 | 39.79948 | 2.61399 | 16139 ft | 384 kts | 303° |
| 2026-05-07 18:09 | 39.81467 | 2.58547 | 16792 ft | 389 kts | 303° |
| 2026-05-07 18:09 | 39.83018 | 2.55628 | 17428 ft | 393 kts | 303° |
| 2026-05-07 18:09 | 39.84588 | 2.52671 | 18054 ft | 398 kts | 303° |
| 2026-05-07 18:10 | 39.86172 | 2.49685 | 18664 ft | 403 kts | 303° |
| 2026-05-07 18:10 | 39.87759 | 2.46694 | 19274 ft | 407 kts | 303° |
| 2026-05-07 18:10 | 39.89377 | 2.43641 | 19890 ft | 411 kts | 302° |
| 2026-05-07 18:10 | 39.91010 | 2.40559 | 20476 ft | 414 kts | 302° |
| 2026-05-07 18:11 | 39.92651 | 2.37461 | 21031 ft | 418 kts | 302° |
| 2026-05-07 18:11 | 39.93749 | 2.35384 | 21391 ft | 420 kts | 302° |
| 2026-05-07 18:11 | 39.95980 | 2.31155 | 22088 ft | 425 kts | 301° |
| 2026-05-07 18:11 | 39.97664 | 2.27962 | 22586 ft | 429 kts | 301° |
| 2026-05-07 18:12 | 39.99362 | 2.24741 | 23082 ft | 432 kts | 301° |
| 2026-05-07 18:12 | 40.01078 | 2.21487 | 23566 ft | 435 kts | 301° |
| 2026-05-07 18:12 | 40.02773 | 2.18269 | 24031 ft | 438 kts | 301° |
| 2026-05-07 18:12 | 40.04502 | 2.14979 | 24485 ft | 441 kts | 301° |
| 2026-05-07 18:13 | 40.06241 | 2.11664 | 24931 ft | 443 kts | 300° |
| 2026-05-07 18:13 | 40.07989 | 2.08328 | 25390 ft | 446 kts | 300° |
| 2026-05-07 18:13 | 40.09750 | 2.04967 | 25852 ft | 448 kts | 300° |
| 2026-05-07 18:13 | 40.11526 | 2.01607 | 26295 ft | 450 kts | 302° |
| 2026-05-07 18:14 | 40.13612 | 1.98518 | 26718 ft | 458 kts | 312° |
| 2026-05-07 18:14 | 40.16133 | 1.95902 | 27130 ft | 466 kts | 323° |
| 2026-05-07 18:14 | 40.18981 | 1.93898 | 27521 ft | 473 kts | 334° |
| 2026-05-07 18:14 | 40.22176 | 1.92542 | 27905 ft | 480 kts | 345° |
| 2026-05-07 18:15 | 40.25434 | 1.91759 | 28257 ft | 484 kts | 347° |
| 2026-05-07 18:15 | 40.28756 | 1.90990 | 28611 ft | 486 kts | 347° |
| 2026-05-07 18:15 | 40.32091 | 1.90217 | 28943 ft | 488 kts | 347° |
| 2026-05-07 18:15 | 40.35450 | 1.89438 | 29276 ft | 491 kts | 347° |
| 2026-05-07 18:16 | 40.38826 | 1.88655 | 29590 ft | 493 kts | 346° |
| 2026-05-07 18:16 | 40.42211 | 1.87870 | 29891 ft | 495 kts | 346° |
| 2026-05-07 18:16 | 40.45612 | 1.87078 | 30200 ft | 498 kts | 346° |
| 2026-05-07 18:16 | 40.49019 | 1.86280 | 30603 ft | 497 kts | 346° |
| 2026-05-07 18:17 | 40.52434 | 1.85477 | 31008 ft | 497 kts | 346° |
| 2026-05-07 18:17 | 40.55832 | 1.84677 | 31413 ft | 496 kts | 346° |
| 2026-05-07 18:17 | 40.59233 | 1.83877 | 31815 ft | 495 kts | 346° |
| 2026-05-07 18:17 | 40.62635 | 1.83079 | 32218 ft | 495 kts | 346° |
| 2026-05-07 18:18 | 40.66024 | 1.82283 | 32607 ft | 494 kts | 345° |
| 2026-05-07 18:18 | 40.69381 | 1.81493 | 32991 ft | 494 kts | 345° |
| 2026-05-07 18:18 | 40.71626 | 1.80966 | 33243 ft | 494 kts | 345° |
| 2026-05-07 18:18 | 40.76153 | 1.79905 | 33743 ft | 493 kts | 345° |
| 2026-05-07 18:19 | 40.78395 | 1.79377 | 33997 ft | 493 kts | 345° |
| 2026-05-07 18:19 | 40.81771 | 1.78583 | 34394 ft | 492 kts | 345° |
| 2026-05-07 18:19 | 40.85140 | 1.77788 | 34800 ft | 491 kts | 345° |
| 2026-05-07 18:19 | 40.88501 | 1.76989 | 35208 ft | 489 kts | 345° |
| 2026-05-07 18:20 | 40.91868 | 1.76187 | 35590 ft | 488 kts | 345° |
| 2026-05-07 18:20 | 40.95206 | 1.75396 | 35947 ft | 486 kts | 345° |
| 2026-05-07 18:20 | 40.98498 | 1.74618 | 36264 ft | 486 kts | 345° |
| 2026-05-07 18:20 | 41.01827 | 1.73829 | 36590 ft | 485 kts | 345° |
| 2026-05-07 18:21 | 41.05152 | 1.73041 | 36917 ft | 484 kts | 345° |
| 2026-05-07 18:21 | 41.08474 | 1.72354 | 37293 ft | 482 kts | 347° |
| 2026-05-07 18:21 | 41.11799 | 1.71800 | 37682 ft | 480 kts | 349° |
| 2026-05-07 18:21 | 41.15117 | 1.71334 | 37918 ft | 479 kts | 349° |
| 2026-05-07 18:22 | 41.18432 | 1.70905 | 37968 ft | 478 kts | 349° |
| 2026-05-07 18:22 | 41.25043 | 1.70010 | 37966 ft | 476 kts | 349° |
| 2026-05-07 18:23 | 41.31629 | 1.69010 | 37970 ft | 476 kts | 348° |
| 2026-05-07 18:23 | 41.38209 | 1.67951 | 37975 ft | 475 kts | 348° |
| 2026-05-07 18:24 | 41.44740 | 1.66909 | 37963 ft | 476 kts | 348° |
| 2026-05-07 18:24 | 41.51332 | 1.65869 | 37967 ft | 476 kts | 348° |
| 2026-05-07 18:25 | 41.57924 | 1.64855 | 37977 ft | 476 kts | 348° |
| 2026-05-07 18:25 | 41.64519 | 1.63834 | 37980 ft | 476 kts | 348° |
| 2026-05-07 18:26 | 41.71106 | 1.62799 | 37967 ft | 476 kts | 348° |
| 2026-05-07 18:26 | 41.77652 | 1.61760 | 37967 ft | 476 kts | 348° |
| 2026-05-07 18:27 | 41.84254 | 1.60718 | 37967 ft | 476 kts | 348° |
| 2026-05-07 18:27 | 41.90848 | 1.59679 | 37966 ft | 476 kts | 348° |
| 2026-05-07 18:28 | 41.97408 | 1.58634 | 37968 ft | 477 kts | 348° |
| 2026-05-07 18:28 | 42.04013 | 1.57586 | 37971 ft | 477 kts | 348° |
| 2026-05-07 18:29 | 42.10582 | 1.56552 | 37962 ft | 476 kts | 348° |
| 2026-05-07 18:29 | 42.17176 | 1.55509 | 37961 ft | 476 kts | 348° |
| 2026-05-07 18:30 | 42.23752 | 1.54463 | 37948 ft | 475 kts | 348° |
| 2026-05-07 18:30 | 42.30327 | 1.53401 | 37956 ft | 475 kts | 348° |
| 2026-05-07 18:31 | 42.36849 | 1.52354 | 37960 ft | 475 kts | 348° |
| 2026-05-07 18:31 | 42.43422 | 1.51298 | 37960 ft | 475 kts | 348° |
| 2026-05-07 18:32 | 42.49997 | 1.50238 | 37960 ft | 475 kts | 348° |
| 2026-05-07 18:32 | 42.56557 | 1.49184 | 37950 ft | 474 kts | 348° |
| 2026-05-07 18:33 | 42.63079 | 1.48130 | 37952 ft | 473 kts | 348° |
| 2026-05-07 18:33 | 42.69618 | 1.47074 | 37953 ft | 473 kts | 349° |
| 2026-05-07 18:34 | 42.76163 | 1.46029 | 37951 ft | 473 kts | 349° |
| 2026-05-07 18:34 | 42.82715 | 1.44975 | 37961 ft | 473 kts | 349° |
| 2026-05-07 18:35 | 42.89250 | 1.43918 | 37958 ft | 472 kts | 349° |
| 2026-05-07 18:35 | 42.95778 | 1.42859 | 37958 ft | 472 kts | 349° |
| 2026-05-07 18:36 | 43.02292 | 1.41795 | 37960 ft | 471 kts | 349° |
| 2026-05-07 18:36 | 43.08764 | 1.40739 | 37960 ft | 471 kts | 349° |
| 2026-05-07 18:37 | 43.15284 | 1.39680 | 37958 ft | 471 kts | 349° |
| 2026-05-07 18:37 | 43.21807 | 1.38621 | 37947 ft | 470 kts | 349° |
| 2026-05-07 18:38 | 43.28269 | 1.37567 | 37958 ft | 470 kts | 349° |
| 2026-05-07 18:38 | 43.34772 | 1.36492 | 37959 ft | 470 kts | 349° |
| 2026-05-07 18:39 | 43.41268 | 1.35413 | 37954 ft | 469 kts | 349° |
| 2026-05-07 18:39 | 43.47763 | 1.34344 | 37951 ft | 469 kts | 349° |
| 2026-05-07 18:40 | 43.54251 | 1.33278 | 37946 ft | 469 kts | 349° |
| 2026-05-07 18:40 | 43.60718 | 1.32211 | 37954 ft | 469 kts | 349° |
| 2026-05-07 18:41 | 43.67233 | 1.31131 | 37955 ft | 469 kts | 349° |
| 2026-05-07 18:41 | 43.73678 | 1.29763 | 37950 ft | 467 kts | 345° |
| 2026-05-07 18:42 | 43.80010 | 1.28034 | 37952 ft | 466 kts | 344° |
| 2026-05-07 18:42 | 43.86379 | 1.26259 | 37951 ft | 466 kts | 344° |
| 2026-05-07 18:43 | 43.92759 | 1.24581 | 37963 ft | 466 kts | 345° |
| 2026-05-07 18:43 | 43.99150 | 1.22949 | 37960 ft | 466 kts | 345° |
| 2026-05-07 18:44 | 44.05527 | 1.21309 | 37961 ft | 466 kts | 345° |
| 2026-05-07 18:44 | 44.11896 | 1.19655 | 37973 ft | 465 kts | 345° |
| 2026-05-07 18:45 | 44.18236 | 1.17990 | 37970 ft | 465 kts | 345° |
| 2026-05-07 18:45 | 44.24603 | 1.16320 | 37961 ft | 465 kts | 345° |
| 2026-05-07 18:46 | 44.30971 | 1.14642 | 37964 ft | 465 kts | 345° |
| 2026-05-07 18:46 | 44.37286 | 1.12978 | 37969 ft | 465 kts | 345° |
| 2026-05-07 18:47 | 44.43651 | 1.11303 | 37960 ft | 464 kts | 345° |
| 2026-05-07 18:47 | 44.50005 | 1.09630 | 37970 ft | 464 kts | 345° |
| 2026-05-07 18:48 | 44.56356 | 1.07949 | 37970 ft | 464 kts | 345° |
| 2026-05-07 18:48 | 44.62708 | 1.06259 | 37957 ft | 464 kts | 345° |
| 2026-05-07 18:49 | 44.69058 | 1.04577 | 37956 ft | 464 kts | 345° |
| 2026-05-07 18:49 | 44.75367 | 1.02912 | 37968 ft | 464 kts | 345° |
| 2026-05-07 18:50 | 44.81708 | 1.01218 | 37966 ft | 463 kts | 345° |
| 2026-05-07 18:50 | 44.88053 | 0.99516 | 37966 ft | 463 kts | 345° |
| 2026-05-07 18:51 | 44.94386 | 0.97816 | 37963 ft | 463 kts | 345° |
| 2026-05-07 18:51 | 45.00725 | 0.96104 | 37969 ft | 463 kts | 345° |
| 2026-05-07 18:52 | 45.07070 | 0.94394 | 37958 ft | 464 kts | 345° |
| 2026-05-07 18:52 | 45.13375 | 0.92691 | 37967 ft | 464 kts | 345° |
| 2026-05-07 18:53 | 45.19729 | 0.90967 | 37967 ft | 464 kts | 345° |
| 2026-05-07 18:53 | 45.26065 | 0.89256 | 37964 ft | 464 kts | 345° |
| 2026-05-07 18:54 | 45.32294 | 0.87565 | 37966 ft | 464 kts | 345° |
| 2026-05-07 18:54 | 45.38596 | 0.85836 | 37975 ft | 463 kts | 345° |
| 2026-05-07 18:55 | 45.44943 | 0.84111 | 37970 ft | 464 kts | 346° |
| 2026-05-07 18:55 | 45.51297 | 0.82386 | 37980 ft | 464 kts | 345° |
| 2026-05-07 18:56 | 45.57635 | 0.80639 | 37981 ft | 463 kts | 345° |
| 2026-05-07 18:56 | 45.63931 | 0.78908 | 37980 ft | 463 kts | 345° |
| 2026-05-07 18:57 | 45.70227 | 0.77177 | 37985 ft | 463 kts | 345° |
| 2026-05-07 18:57 | 45.75497 | 0.75721 | 37986 ft | 463 kts | 345° |
| 2026-05-07 18:58 | 45.81835 | 0.73966 | 37989 ft | 462 kts | 345° |
| 2026-05-07 18:58 | 45.88112 | 0.72226 | 37989 ft | 462 kts | 345° |
| 2026-05-07 18:59 | 45.94429 | 0.70463 | 37989 ft | 462 kts | 345° |
| 2026-05-07 18:59 | 46.00759 | 0.68690 | 37991 ft | 462 kts | 345° |
| 2026-05-07 19:00 | 46.07090 | 0.66919 | 37995 ft | 462 kts | 345° |
| 2026-05-07 19:00 | 46.13375 | 0.65169 | 37997 ft | 462 kts | 345° |
| 2026-05-07 19:01 | 46.19682 | 0.63399 | 37997 ft | 461 kts | 345° |
| 2026-05-07 19:01 | 46.25992 | 0.61623 | 37996 ft | 461 kts | 345° |
| 2026-05-07 19:02 | 46.32292 | 0.59844 | 37996 ft | 460 kts | 345° |
| 2026-05-07 19:02 | 46.38564 | 0.58069 | 37994 ft | 461 kts | 345° |
| 2026-05-07 19:03 | 46.44856 | 0.56287 | 37992 ft | 461 kts | 345° |
| 2026-05-07 19:03 | 46.51164 | 0.54490 | 37993 ft | 460 kts | 345° |
| 2026-05-07 19:04 | 46.57546 | 0.53855 | 37985 ft | 467 kts | 2° |
| 2026-05-07 19:04 | 46.63946 | 0.55648 | 37985 ft | 470 kts | 10° |
| 2026-05-07 19:05 | 46.70345 | 0.57757 | 37984 ft | 470 kts | 10° |
| 2026-05-07 19:05 | 46.76696 | 0.59859 | 37985 ft | 469 kts | 10° |
| 2026-05-07 19:06 | 46.83072 | 0.61966 | 37988 ft | 470 kts | 10° |
| 2026-05-07 19:06 | 46.92655 | 0.65162 | 37995 ft | 470 kts | 10° |
| 2026-05-07 19:07 | 46.98999 | 0.67272 | 38002 ft | 470 kts | 10° |
| 2026-05-07 19:07 | 47.05376 | 0.69518 | 38005 ft | 470 kts | 12° |
| 2026-05-07 19:08 | 47.11707 | 0.71916 | 38005 ft | 470 kts | 12° |
| 2026-05-07 19:08 | 47.18042 | 0.74327 | 38005 ft | 469 kts | 12° |
| 2026-05-07 19:09 | 47.24383 | 0.76704 | 38007 ft | 470 kts | 12° |
| 2026-05-07 19:09 | 47.30688 | 0.79051 | 38009 ft | 470 kts | 11° |
| 2026-05-07 19:10 | 47.37038 | 0.81425 | 38011 ft | 470 kts | 12° |
| 2026-05-07 19:10 | 47.43387 | 0.83820 | 38015 ft | 470 kts | 12° |
| 2026-05-07 19:11 | 47.49722 | 0.86211 | 38017 ft | 470 kts | 12° |
| 2026-05-07 19:11 | 47.56058 | 0.88615 | 38015 ft | 470 kts | 12° |
| 2026-05-07 19:12 | 47.62380 | 0.91020 | 38016 ft | 469 kts | 12° |
| 2026-05-07 19:12 | 47.65541 | 0.92227 | 37673 ft | 467 kts | 12° |
| 2026-05-07 19:12 | 47.68659 | 0.93418 | 37033 ft | 466 kts | 12° |
| 2026-05-07 19:13 | 47.71794 | 0.94616 | 36393 ft | 465 kts | 12° |
| 2026-05-07 19:13 | 47.74921 | 0.95810 | 36068 ft | 463 kts | 12° |
| 2026-05-07 19:13 | 47.78056 | 0.97005 | 35966 ft | 465 kts | 12° |
| 2026-05-07 19:13 | 47.81193 | 0.98197 | 36000 ft | 469 kts | 12° |
| 2026-05-07 19:14 | 47.87552 | 1.00620 | 36003 ft | 472 kts | 12° |
| 2026-05-07 19:14 | 47.93872 | 1.03049 | 36000 ft | 472 kts | 12° |
| 2026-05-07 19:15 | 48.00238 | 1.05509 | 36010 ft | 472 kts | 12° |
| 2026-05-07 19:15 | 48.06607 | 1.07966 | 36013 ft | 472 kts | 12° |
| 2026-05-07 19:16 | 48.12972 | 1.10428 | 36020 ft | 472 kts | 12° |
| 2026-05-07 19:16 | 48.19284 | 1.12873 | 36021 ft | 471 kts | 12° |
| 2026-05-07 19:17 | 48.25634 | 1.15346 | 36022 ft | 471 kts | 12° |
| 2026-05-07 19:17 | 48.31978 | 1.17828 | 36021 ft | 471 kts | 12° |
| 2026-05-07 19:18 | 48.38323 | 1.20318 | 36027 ft | 470 kts | 12° |
| 2026-05-07 19:18 | 48.44658 | 1.22790 | 36030 ft | 470 kts | 12° |
| 2026-05-07 19:19 | 48.51003 | 1.25266 | 36036 ft | 470 kts | 12° |
| 2026-05-07 19:19 | 48.57295 | 1.27744 | 36037 ft | 470 kts | 12° |
| 2026-05-07 19:20 | 48.63627 | 1.30254 | 36037 ft | 470 kts | 12° |
| 2026-05-07 19:20 | 48.69944 | 1.32762 | 36036 ft | 469 kts | 12° |
| 2026-05-07 19:21 | 48.76271 | 1.35271 | 36035 ft | 469 kts | 12° |
| 2026-05-07 19:21 | 48.82559 | 1.37775 | 36047 ft | 469 kts | 12° |
| 2026-05-07 19:22 | 48.88882 | 1.40298 | 36037 ft | 468 kts | 12° |
| 2026-05-07 19:22 | 48.95184 | 1.42822 | 36038 ft | 468 kts | 12° |
| 2026-05-07 19:23 | 49.01483 | 1.45352 | 36044 ft | 468 kts | 12° |
| 2026-05-07 19:23 | 49.07790 | 1.47879 | 36036 ft | 468 kts | 12° |
| 2026-05-07 19:24 | 49.14081 | 1.50413 | 36040 ft | 468 kts | 12° |
| 2026-05-07 19:24 | 49.20375 | 1.52971 | 36047 ft | 467 kts | 12° |
| 2026-05-07 19:25 | 49.26377 | 1.56713 | 36046 ft | 471 kts | 30° |
| 2026-05-07 19:25 | 49.31482 | 1.63069 | 36053 ft | 473 kts | 43° |
| 2026-05-07 19:26 | 49.36243 | 1.70058 | 36057 ft | 474 kts | 43° |
| 2026-05-07 19:26 | 49.41020 | 1.77041 | 36057 ft | 473 kts | 42° |
| 2026-05-07 19:27 | 49.45764 | 1.83993 | 36064 ft | 473 kts | 43° |
| 2026-05-07 19:27 | 49.50527 | 1.91032 | 36059 ft | 472 kts | 43° |
| 2026-05-07 19:28 | 49.55264 | 1.98044 | 36063 ft | 472 kts | 43° |
| 2026-05-07 19:28 | 49.59972 | 2.05033 | 36062 ft | 472 kts | 43° |
| 2026-05-07 19:29 | 49.62339 | 2.08549 | 35480 ft | 472 kts | 43° |
| 2026-05-07 19:29 | 49.64701 | 2.12056 | 34760 ft | 471 kts | 43° |
| 2026-05-07 19:29 | 49.67072 | 2.15585 | 34013 ft | 471 kts | 43° |
| 2026-05-07 19:29 | 49.69425 | 2.19093 | 33270 ft | 470 kts | 43° |
| 2026-05-07 19:30 | 49.71786 | 2.22614 | 32499 ft | 470 kts | 43° |
| 2026-05-07 19:30 | 49.74132 | 2.26120 | 32168 ft | 470 kts | 43° |
| 2026-05-07 19:30 | 49.76485 | 2.29647 | 31977 ft | 469 kts | 43° |
| 2026-05-07 19:30 | 49.78810 | 2.33140 | 30997 ft | 465 kts | 43° |
| 2026-05-07 19:31 | 49.81139 | 2.36647 | 29454 ft | 468 kts | 43° |
| 2026-05-07 19:31 | 49.83489 | 2.40189 | 27839 ft | 471 kts | 43° |
| 2026-05-07 19:31 | 49.85833 | 2.43721 | 26578 ft | 466 kts | 43° |
| 2026-05-07 19:31 | 49.88128 | 2.47186 | 25385 ft | 458 kts | 43° |
| 2026-05-07 19:32 | 49.90395 | 2.50615 | 24218 ft | 450 kts | 44° |
| 2026-05-07 19:32 | 49.92618 | 2.53984 | 23079 ft | 444 kts | 44° |
| 2026-05-07 19:32 | 49.94800 | 2.57293 | 22445 ft | 442 kts | 44° |
| 2026-05-07 19:32 | 49.96998 | 2.60630 | 22189 ft | 442 kts | 44° |
| 2026-05-07 19:33 | 49.99192 | 2.63965 | 22032 ft | 442 kts | 44° |
| 2026-05-07 19:33 | 50.01378 | 2.67291 | 22053 ft | 441 kts | 44° |
| 2026-05-07 19:33 | 50.03568 | 2.70629 | 22054 ft | 440 kts | 44° |
| 2026-05-07 19:33 | 50.05761 | 2.73979 | 22053 ft | 440 kts | 44° |
| 2026-05-07 19:34 | 50.07940 | 2.77312 | 22054 ft | 440 kts | 44° |
| 2026-05-07 19:34 | 50.10126 | 2.80654 | 22058 ft | 439 kts | 44° |
| 2026-05-07 19:34 | 50.12291 | 2.83963 | 22066 ft | 439 kts | 44° |
| 2026-05-07 19:34 | 50.14490 | 2.87328 | 22063 ft | 439 kts | 44° |
| 2026-05-07 19:35 | 50.16664 | 2.90668 | 22061 ft | 439 kts | 44° |
| 2026-05-07 19:35 | 50.18842 | 2.94022 | 22064 ft | 439 kts | 44° |
| 2026-05-07 19:35 | 50.21016 | 2.97374 | 22063 ft | 439 kts | 44° |
| 2026-05-07 19:35 | 50.23184 | 3.00720 | 22066 ft | 439 kts | 44° |
| 2026-05-07 19:36 | 50.24625 | 3.02945 | 22073 ft | 439 kts | 44° |
| 2026-05-07 19:36 | 50.26798 | 3.06305 | 22072 ft | 439 kts | 44° |
| 2026-05-07 19:36 | 50.28971 | 3.09668 | 22073 ft | 438 kts | 44° |
| 2026-05-07 19:36 | 50.31141 | 3.13033 | 22073 ft | 439 kts | 44° |
| 2026-05-07 19:37 | 50.33304 | 3.16399 | 22077 ft | 439 kts | 44° |
| 2026-05-07 19:37 | 50.35470 | 3.19778 | 22082 ft | 439 kts | 44° |
| 2026-05-07 19:37 | 50.37632 | 3.23151 | 22081 ft | 439 kts | 44° |
| 2026-05-07 19:37 | 50.39794 | 3.26519 | 22081 ft | 438 kts | 44° |
| 2026-05-07 19:38 | 50.41932 | 3.29854 | 22082 ft | 439 kts | 44° |
| 2026-05-07 19:38 | 50.44106 | 3.33247 | 22081 ft | 439 kts | 44° |
| 2026-05-07 19:38 | 50.46271 | 3.36631 | 22083 ft | 439 kts | 44° |
| 2026-05-07 19:38 | 50.48438 | 3.40021 | 22084 ft | 438 kts | 44° |
| 2026-05-07 19:39 | 50.50591 | 3.43399 | 21955 ft | 436 kts | 44° |
| 2026-05-07 19:39 | 50.52740 | 3.46782 | 21690 ft | 436 kts | 44° |
| 2026-05-07 19:39 | 50.54964 | 3.50005 | 21430 ft | 434 kts | 38° |
| 2026-05-07 19:39 | 50.57406 | 3.52791 | 21193 ft | 432 kts | 34° |
| 2026-05-07 19:40 | 50.59843 | 3.55451 | 20952 ft | 431 kts | 34° |
| 2026-05-07 19:40 | 50.62300 | 3.58142 | 20694 ft | 429 kts | 34° |
| 2026-05-07 19:40 | 50.64755 | 3.60839 | 20436 ft | 427 kts | 34° |
| 2026-05-07 19:40 | 50.67189 | 3.63520 | 20192 ft | 425 kts | 34° |
| 2026-05-07 19:41 | 50.69611 | 3.66187 | 19942 ft | 424 kts | 34° |
| 2026-05-07 19:41 | 50.72024 | 3.68851 | 19691 ft | 422 kts | 34° |
| 2026-05-07 19:41 | 50.74425 | 3.71508 | 19446 ft | 420 kts | 34° |
| 2026-05-07 19:41 | 50.76808 | 3.74154 | 19192 ft | 413 kts | 34° |
| 2026-05-07 19:42 | 50.79122 | 3.76731 | 18938 ft | 401 kts | 34° |
| 2026-05-07 19:42 | 50.81369 | 3.79242 | 18684 ft | 391 kts | 34° |
| 2026-05-07 19:42 | 50.83576 | 3.81710 | 18439 ft | 387 kts | 34° |
| 2026-05-07 19:42 | 50.85692 | 3.84312 | 18186 ft | 382 kts | 41° |
| 2026-05-07 19:43 | 50.87531 | 3.87268 | 17940 ft | 371 kts | 49° |
| 2026-05-07 19:43 | 50.89077 | 3.90475 | 17688 ft | 362 kts | 56° |
| 2026-05-07 19:43 | 50.90346 | 3.93883 | 17438 ft | 358 kts | 63° |
| 2026-05-07 19:43 | 50.91319 | 3.97495 | 17189 ft | 355 kts | 71° |
| 2026-05-07 19:44 | 50.91974 | 4.01219 | 16941 ft | 354 kts | 79° |
| 2026-05-07 19:44 | 50.92314 | 4.05077 | 16690 ft | 352 kts | 86° |
| 2026-05-07 19:44 | 50.92368 | 4.08955 | 16438 ft | 351 kts | 88° |
| 2026-05-07 19:44 | 50.92872 | 4.12722 | 16190 ft | 349 kts | 66° |
| 2026-05-07 19:45 | 50.94199 | 4.15876 | 15942 ft | 347 kts | 46° |
| 2026-05-07 19:45 | 50.95922 | 4.18551 | 15694 ft | 346 kts | 43° |
| 2026-05-07 19:45 | 50.97666 | 4.21174 | 15444 ft | 345 kts | 43° |
| 2026-05-07 19:45 | 50.99409 | 4.23787 | 15187 ft | 344 kts | 43° |
| 2026-05-07 19:46 | 51.01136 | 4.26375 | 14945 ft | 343 kts | 43° |
| 2026-05-07 19:46 | 51.02873 | 4.28976 | 14693 ft | 341 kts | 43° |
| 2026-05-07 19:46 | 51.04599 | 4.31561 | 14431 ft | 340 kts | 43° |
| 2026-05-07 19:46 | 51.06306 | 4.34160 | 14175 ft | 339 kts | 46° |
| 2026-05-07 19:47 | 51.07576 | 4.37263 | 13755 ft | 334 kts | 68° |
| 2026-05-07 19:47 | 51.08336 | 4.40689 | 13027 ft | 331 kts | 72° |
| 2026-05-07 19:47 | 51.09035 | 4.44169 | 12315 ft | 328 kts | 72° |
| 2026-05-07 19:47 | 51.09721 | 4.47616 | 11598 ft | 324 kts | 72° |
| 2026-05-07 19:48 | 51.10397 | 4.51019 | 10901 ft | 320 kts | 72° |
| 2026-05-07 19:48 | 51.11059 | 4.54372 | 10227 ft | 315 kts | 72° |
| 2026-05-07 19:48 | 51.11710 | 4.57681 | 9540 ft | 311 kts | 72° |
| 2026-05-07 19:48 | 51.12351 | 4.60954 | 9023 ft | 308 kts | 72° |
| 2026-05-07 19:49 | 51.12971 | 4.64138 | 8886 ft | 294 kts | 72° |
| 2026-05-07 19:49 | 51.13562 | 4.67190 | 8675 ft | 285 kts | 72° |
| 2026-05-07 19:49 | 51.14138 | 4.70173 | 8304 ft | 281 kts | 73° |
| 2026-05-07 19:49 | 51.14707 | 4.73135 | 7913 ft | 279 kts | 72° |
| 2026-05-07 19:50 | 51.15270 | 4.76090 | 7420 ft | 279 kts | 73° |
| 2026-05-07 19:50 | 51.15849 | 4.79131 | 6548 ft | 294 kts | 73° |
| 2026-05-07 19:50 | 51.16284 | 4.82241 | 6370 ft | 281 kts | 88° |
| 2026-05-07 19:50 | 51.15912 | 4.85188 | 6159 ft | 271 kts | 115° |
| 2026-05-07 19:51 | 51.14813 | 4.87595 | 5757 ft | 269 kts | 131° |
| 2026-05-07 19:51 | 51.13536 | 4.89757 | 5317 ft | 268 kts | 135° |
| 2026-05-07 19:51 | 51.11964 | 4.91231 | 4902 ft | 267 kts | 163° |
| 2026-05-07 19:51 | 51.10123 | 4.91337 | 4476 ft | 266 kts | 192° |
| 2026-05-07 19:52 | 51.08438 | 4.90138 | 3998 ft | 267 kts | 211° |
| 2026-05-07 19:52 | 51.06867 | 4.88567 | 3616 ft | 263 kts | 213° |
| 2026-05-07 19:52 | 51.05370 | 4.87023 | 3485 ft | 250 kts | 213° |
| 2026-05-07 19:52 | 51.03944 | 4.85547 | 3361 ft | 238 kts | 213° |
| 2026-05-07 19:53 | 51.02568 | 4.84121 | 3065 ft | 233 kts | 213° |
| 2026-05-07 19:53 | 51.01265 | 4.82768 | 2855 ft | 214 kts | 213° |
| 2026-05-07 19:53 | 51.00186 | 4.81233 | 2506 ft | 204 kts | 235° |
| 2026-05-07 19:53 | 50.99566 | 4.79325 | 2237 ft | 188 kts | 246° |
| 2026-05-07 19:54 | 50.99045 | 4.77486 | 1984 ft | 182 kts | 246° |
| 2026-05-07 19:54 | 50.98528 | 4.75670 | 2000 ft | 185 kts | 246° |
| 2026-05-07 19:54 | 50.97990 | 4.73779 | 2002 ft | 186 kts | 246° |
| 2026-05-07 19:54 | 50.97462 | 4.71935 | 2005 ft | 185 kts | 246° |
| 2026-05-07 19:55 | 50.96930 | 4.70070 | 2006 ft | 186 kts | 246° |
| 2026-05-07 19:55 | 50.96395 | 4.68195 | 2007 ft | 186 kts | 246° |
| 2026-05-07 19:55 | 50.95861 | 4.66331 | 2007 ft | 182 kts | 246° |
| 2026-05-07 19:55 | 50.95357 | 4.64574 | 1987 ft | 173 kts | 246° |
| 2026-05-07 19:56 | 50.94864 | 4.62852 | 1838 ft | 169 kts | 246° |
| 2026-05-07 19:56 | 50.94381 | 4.61170 | 1642 ft | 167 kts | 246° |
| 2026-05-07 19:56 | 50.93901 | 4.59498 | 1430 ft | 169 kts | 246° |
| 2026-05-07 19:56 | 50.93424 | 4.57836 | 1211 ft | 160 kts | 246° |
| 2026-05-07 19:57 | 50.92975 | 4.56270 | 1005 ft | 155 kts | 246° |
| 2026-05-07 19:57 | 50.92529 | 4.54721 | 801 ft | 153 kts | 246° |
| 2026-05-07 19:57 | 50.92088 | 4.53189 | 594 ft | 152 kts | 245° |
| 2026-05-07 19:57 | 50.91650 | 4.51669 | 368 ft | 151 kts | 246° |
| 2026-05-07 19:58 | 50.91224 | 4.50197 | 210 ft | 143 kts | 246° |
| 2026-05-07 19:58 | 50.90851 | 4.48888 | 136 ft | 114 kts | 245° |
| 2026-05-07 19:58 | 50.90623 | 4.48104 | 140 ft | 37 kts | 245° |
| 2026-05-07 19:58 | 50.90568 | 4.47917 | 142 ft | 17 kts | 238° |
| 2026-05-07 19:59 | 50.90496 | 4.47751 | 141 ft | 19 kts | 228° |
| 2026-05-07 19:59 | 50.90396 | 4.47612 | 139 ft | 19 kts | 220° |
| 2026-05-07 19:59 | 50.90374 | 4.47587 | 138 ft | 0 kts | 214° |
| 2026-05-07 19:59 | 50.90373 | 4.47585 | 138 ft | 1 kts | 214° |
| 2026-05-07 20:00 | 50.90353 | 4.47572 | 139 ft | 4 kts | 188° |
| 2026-05-07 20:00 | 50.90320 | 4.47604 | 138 ft | 11 kts | 124° |
| 2026-05-07 20:00 | 50.90344 | 4.47747 | 138 ft | 15 kts | 65° |
| 2026-05-07 20:00 | 50.90386 | 4.47895 | 140 ft | 15 kts | 66° |
| 2026-05-07 20:01 | 50.90431 | 4.48056 | 140 ft | 16 kts | 65° |
| 2026-05-07 20:01 | 50.90475 | 4.48213 | 142 ft | 16 kts | 65° |
| 2026-05-07 20:01 | 50.90527 | 4.48393 | 138 ft | 20 kts | 65° |
| 2026-05-07 20:01 | 50.90554 | 4.48554 | 135 ft | 15 kts | 106° |
| 2026-05-07 20:02 | 50.90484 | 4.48639 | 135 ft | 11 kts | 157° |
| 2026-05-07 20:02 | 50.90428 | 4.48680 | 135 ft | 0 kts | 156° |
| 2026-05-07 20:02 | 50.90424 | 4.48682 | 135 ft | 0 kts | 156° |